Time;durP1;ratioP1;P1;durP2;ratioP2;P2;SDS_P1;SDS_P2;PMS_P1;PMS_P2;Temp;Humidity;BMP_temperature;BMP_pressure;BME280_temperature;BME280_humidity;BME280_pressure;Samples;Min_cycle;Max_cycle;Signal;HPM_P1;HPM_P2
2022/01/21 00:01:24;;;;;;;;;;;;;;;1.64;100.00;101262.72;5036089;28;19970;-86
2022/01/21 00:03:52;;;;;;;;;;;;;;;1.16;100.00;101256.97;5068971;28;19924;-86
2022/01/21 00:06:19;;;;;;;;;;;;;;;1.30;100.00;101263.22;5053749;28;19924;-87
2022/01/21 00:08:47;;;;;;;;;;;;;;;1.21;100.00;101262.34;5052625;28;19935;-86
2022/01/21 00:11:15;;;;;;;;;;;;;;;1.48;100.00;101267.81;5052375;28;19924;-86
2022/01/21 00:13:42;;;;;;;;;;;;;;;1.27;100.00;101260.31;5035745;28;20122;-86
2022/01/21 00:16:14;;;;;;;;;;;;;;;1.33;100.00;101268.13;5069180;28;19925;-86
2022/01/21 00:18:45;;;;;;;;;;;;;;;1.09;100.00;101270.31;5086126;28;19925;-84
2022/01/21 00:32:15;;;;;;;;;;;;;;;1.30;100.00;101265.19;5085735;28;19925;-86
2022/01/21 00:34:42;;;;;;;;;;;;;;;1.23;100.00;101268.38;5053244;28;20019;-87
2022/01/21 00:37:10;;;;;;;;;;;;;;;1.06;100.00;101259.91;5052544;28;19925;-86
2022/01/21 00:39:38;;;;;;;;;;;;;;;1.07;100.00;101277.25;5035954;28;19947;-87
2022/01/21 00:44:37;;;;;;;;;;;;;;;1.28;100.00;101279.28;5052333;28;19931;-87
2022/01/21 00:47:04;;;;;;;;;;;;;;;1.66;100.00;101286.13;5069273;28;19925;-87
2022/01/21 00:49:32;;;;;;;;;;;;;;;1.53;100.00;101292.47;5035691;28;19925;-87
2022/01/21 00:51:59;;;;;;;;;;;;;;;1.48;100.00;101284.34;5035966;28;19925;-87
2022/01/21 00:54:26;;;;;;;;;;;;;;;1.65;100.00;101286.44;5051875;28;19928;-87
2022/01/21 00:56:53;;;;;;;;;;;;;;;1.66;100.00;101277.84;5051809;28;19956;-87
2022/01/21 00:59:21;;;;;;;;;;;;;;;1.83;100.00;101275.22;5052275;28;19929;-87
2022/01/21 01:01:48;;;;;;;;;;;;;;;1.74;100.00;101279.84;5089168;28;19925;-87
2022/01/21 01:04:15;;;;;;;;;;;;;;;1.55;100.00;101279.22;5023113;28;19925;-87
2022/01/21 01:06:44;;;;;;;;;;;;;;;1.03;100.00;101284.50;5056938;28;19925;-87
2022/01/21 01:09:12;;;;;;;;;;;;;;;1.32;100.00;101284.97;5059560;28;19924;-87
2022/01/21 01:20:01;;;;;;;;;;;;;;;1.11;100.00;101278.25;5042205;28;19924;-86
2022/01/21 01:22:57;;;;;;;;;;;;;;;1.27;100.00;101288.66;5058631;28;19974;-87
2022/01/21 01:28:03;;;;;;;;;;;;;;;0.91;100.00;101290.50;5058930;28;19958;-87
2022/01/21 01:30:32;;;;;;;;;;;;;;;0.68;100.00;101283.25;5075214;28;19928;-87
2022/01/21 01:33:01;;;;;;;;;;;;;;;0.81;100.00;101285.22;5075292;28;19932;-87
2022/01/21 01:35:32;;;;;;;;;;;;;;;0.84;100.00;101283.78;5041952;28;19924;-87
2022/01/21 01:38:21;;;;;;;;;;;;;;;0.74;100.00;101286.75;5075239;28;19928;-87
2022/01/21 01:40:53;;;;;;;;;;;;;;;1.09;100.00;101289.59;5075099;28;19924;-87
2022/01/21 01:51:29;;;;;;;;;;;;;;;1.01;100.00;101295.84;5058137;28;20368;-87
2022/01/21 01:53:58;;;;;;;;;;;;;;;0.87;100.00;101292.25;5058045;28;19924;-87
2022/01/21 01:56:28;;;;;;;;;;;;;;;0.97;100.00;101297.56;5074916;28;19970;-87
2022/01/21 01:58:55;;;;;;;;;;;;;;;1.14;100.00;101303.25;5058115;28;19925;-87
2022/01/21 02:01:22;;;;;;;;;;;;;;;1.33;100.00;101305.91;5075134;28;19924;-88
2022/01/21 02:03:51;;;;;;;;;;;;;;;1.41;100.00;101294.94;5058380;28;19932;-87
2022/01/21 02:06:19;;;;;;;;;;;;;;;1.45;100.00;101293.19;5074641;28;20015;-87
2022/01/21 02:08:46;;;;;;;;;;;;;;;1.51;100.00;101288.41;5074355;28;19935;-87
2022/01/21 02:11:14;;;;;;;;;;;;;;;1.61;100.00;101294.50;5057429;28;20019;-87
2022/01/21 02:13:45;;;;;;;;;;;;;;;1.70;100.00;101295.38;5057403;28;19928;-88
2022/01/21 02:21:36;;;;;;;;;;;;;;;1.95;100.00;101279.38;5057448;28;19930;-88
2022/01/21 02:24:06;;;;;;;;;;;;;;;2.01;100.00;101281.69;5057567;28;19924;-88
2022/01/21 02:26:34;;;;;;;;;;;;;;;1.91;100.00;101278.38;5057254;28;19932;-88
2022/01/21 02:29:03;;;;;;;;;;;;;;;1.80;100.00;101270.31;5073891;28;19928;-88
2022/01/21 02:31:30;;;;;;;;;;;;;;;1.57;100.00;101276.13;5057357;28;19928;-88
2022/01/21 02:33:58;;;;;;;;;;;;;;;1.47;100.00;101277.19;5073808;28;19978;-88
2022/01/21 02:36:25;;;;;;;;;;;;;;;1.67;100.00;101271.19;5074021;28;19946;-87
2022/01/21 02:38:53;;;;;;;;;;;;;;;1.44;100.00;101269.53;5040482;28;20338;-88
2022/01/21 02:41:21;;;;;;;;;;;;;;;1.44;100.00;101261.28;5073983;28;20019;-88
2022/01/21 02:43:49;;;;;;;;;;;;;;;1.72;100.00;101259.25;5073872;28;20470;-88
2022/01/21 02:46:17;;;;;;;;;;;;;;;1.91;100.00;101259.06;5090759;28;19928;-88
2022/01/21 02:48:45;;;;;;;;;;;;;;;2.11;100.00;101264.06;5073593;28;19930;-88
2022/01/21 02:51:13;;;;;;;;;;;;;;;2.22;100.00;101259.91;5040252;28;20032;-88
2022/01/21 02:56:16;;;;;;;;;;;;;;;2.22;100.00;101260.75;5073424;28;19932;-85
2022/01/21 02:58:45;;;;;;;;;;;;;;;2.29;100.00;101261.09;5073628;28;19925;-85
2022/01/21 03:01:13;;;;;;;;;;;;;;;2.32;100.00;101259.66;5057322;28;20264;-85
2022/01/21 03:03:43;;;;;;;;;;;;;;;2.48;100.00;101255.34;5057063;28;20027;-85
2022/01/21 03:06:10;;;;;;;;;;;;;;;2.49;100.00;101254.22;5073282;28;20443;-85
2022/01/21 03:08:37;;;;;;;;;;;;;;;2.00;100.00;101257.97;5073262;28;20599;-85
2022/01/21 03:11:05;;;;;;;;;;;;;;;2.28;100.00;101253.97;5090336;28;19924;-85
2022/01/21 03:13:32;;;;;;;;;;;;;;;2.01;100.00;101256.88;5073284;28;19925;-88
2022/01/21 03:15:59;;;;;;;;;;;;;;;1.98;100.00;101262.19;5056945;28;20019;-87
2022/01/21 03:18:27;;;;;;;;;;;;;;;2.16;100.00;101253.72;5074760;28;19924;-88
2022/01/21 03:20:54;;;;;;;;;;;;;;;1.92;100.00;101255.19;5072939;28;20327;-88
2022/01/21 03:23:23;;;;;;;;;;;;;;;2.38;100.00;101255.63;5039014;28;20295;-88
2022/01/21 03:25:50;;;;;;;;;;;;;;;2.61;100.00;101257.19;5056272;28;19931;-88
2022/01/21 03:28:33;;;;;;;;;;;;;;;2.70;100.00;101255.28;5073340;28;19932;-88
2022/01/21 03:31:01;;;;;;;;;;;;;;;2.90;100.00;101257.47;5056565;28;19929;-88
2022/01/21 03:33:28;;;;;;;;;;;;;;;2.66;100.00;101260.66;5056383;28;19994;-88
2022/01/21 03:35:55;;;;;;;;;;;;;;;2.80;100.00;101271.56;5106739;28;20359;-88
2022/01/21 03:38:27;;;;;;;;;;;;;;;2.86;100.00;101260.06;5072826;28;20295;-88
2022/01/21 03:40:55;;;;;;;;;;;;;;;2.93;100.00;101263.19;5056079;28;19975;-88
2022/01/21 03:43:23;;;;;;;;;;;;;;;2.91;100.00;101251.63;5039581;28;20294;-88
2022/01/21 03:45:52;;;;;;;;;;;;;;;2.84;100.00;101244.94;5073127;28;19960;-88
2022/01/21 03:48:22;;;;;;;;;;;;;;;2.84;100.00;101248.53;5056306;28;19932;-89
2022/01/21 03:50:51;;;;;;;;;;;;;;;2.63;100.00;101232.84;5056227;28;19924;-88
2022/01/21 03:53:18;;;;;;;;;;;;;;;2.80;100.00;101239.25;5072825;28;19924;-88
2022/01/21 03:55:45;;;;;;;;;;;;;;;2.58;100.00;101235.75;5039305;28;19978;-88
2022/01/21 03:58:13;;;;;;;;;;;;;;;2.47;100.00;101235.22;5089594;28;20397;-88
2022/01/21 04:00:44;;;;;;;;;;;;;;;2.61;100.00;101224.06;5055933;28;19931;-88
2022/01/21 04:03:11;;;;;;;;;;;;;;;2.41;100.00;101219.13;5072693;28;20294;-88
2022/01/21 04:05:38;;;;;;;;;;;;;;;2.27;100.00;101222.00;5056061;28;20013;-88
2022/01/21 04:08:06;;;;;;;;;;;;;;;2.38;100.00;101223.31;5072492;28;19924;-88
2022/01/21 04:10:41;;;;;;;;;;;;;;;2.64;100.00;101228.94;5039340;28;20015;-88
2022/01/21 04:13:16;;;;;;;;;;;;;;;2.53;100.00;101222.09;5056293;28;19931;-88
2022/01/21 04:15:46;;;;;;;;;;;;;;;2.43;100.00;101216.84;5072703;28;19925;-88
2022/01/21 04:18:15;;;;;;;;;;;;;;;2.44;100.00;101229.53;5072322;28;19928;-86
2022/01/21 04:20:46;;;;;;;;;;;;;;;2.26;100.00;101212.06;5072864;28;19930;-86
2022/01/21 04:23:14;;;;;;;;;;;;;;;2.40;100.00;101214.72;5039584;28;19925;-85
2022/01/21 04:26:07;;;;;;;;;;;;;;;2.46;100.00;101221.72;5055957;28;19935;-86
2022/01/21 04:28:35;;;;;;;;;;;;;;;2.54;100.00;101223.72;5072344;28;19925;-85
2022/01/21 04:31:05;;;;;;;;;;;;;;;2.33;100.00;101214.38;5055672;28;19925;-86
2022/01/21 04:33:59;;;;;;;;;;;;;;;2.72;100.00;101217.13;5071216;28;19971;-86
2022/01/21 04:36:26;;;;;;;;;;;;;;;2.82;100.00;101208.53;5075491;28;19959;-86
2022/01/21 04:38:56;;;;;;;;;;;;;;;2.91;100.00;101203.84;5059384;28;19967;-86
2022/01/21 04:49:41;;;;;;;;;;;;;;;3.08;100.00;101195.59;5075755;28;19925;-86
2022/01/21 04:52:08;;;;;;;;;;;;;;;2.85;100.00;101200.44;5075778;28;20380;-86
2022/01/21 04:54:46;;;;;;;;;;;;;;;2.51;100.00;101200.34;5076543;28;19924;-86
2022/01/21 04:57:13;;;;;;;;;;;;;;;2.70;100.00;101187.09;5059308;28;19925;-85
2022/01/21 04:59:41;;;;;;;;;;;;;;;2.98;100.00;101190.41;5076460;28;19970;-86
2022/01/21 05:02:09;;;;;;;;;;;;;;;2.63;100.00;101183.16;5058878;28;20043;-86
2022/01/21 05:04:36;;;;;;;;;;;;;;;2.90;100.00;101193.94;5075758;28;20007;-86
2022/01/21 05:07:06;;;;;;;;;;;;;;;2.87;100.00;101187.13;5058938;28;19929;-85
2022/01/21 05:09:35;;;;;;;;;;;;;;;3.14;100.00;101189.63;5058884;28;20264;-86
2022/01/21 05:12:08;;;;;;;;;;;;;;;2.98;100.00;101182.13;5075939;28;20007;-86
2022/01/21 05:14:47;;;;;;;;;;;;;;;2.82;100.00;101179.00;5093035;28;19931;-86
2022/01/21 05:17:17;;;;;;;;;;;;;;;2.60;100.00;101173.59;5075516;28;20394;-88
2022/01/21 05:19:45;;;;;;;;;;;;;;;2.38;100.00;101164.59;5075599;28;19925;-88
2022/01/21 05:22:20;;;;;;;;;;;;;;;2.65;100.00;101167.09;5078079;28;19924;-88
2022/01/21 05:24:51;;;;;;;;;;;;;;;2.66;100.00;101165.97;5079412;28;20062;-88
2022/01/21 05:27:18;;;;;;;;;;;;;;;2.77;100.00;101162.56;5095899;28;19931;-88
2022/01/21 05:29:50;;;;;;;;;;;;;;;2.43;100.00;101161.66;5096372;28;19924;-88
2022/01/21 05:32:21;;;;;;;;;;;;;;;2.99;100.00;101162.47;5062583;28;19931;-88
2022/01/21 05:34:57;;;;;;;;;;;;;;;3.08;100.00;101166.06;5112352;28;20017;-88
2022/01/21 05:37:43;;;;;;;;;;;;;;;3.30;100.00;101165.09;5096489;28;20438;-88
2022/01/21 05:40:24;;;;;;;;;;;;;;;3.56;100.00;101168.63;5080594;28;19955;-88
2022/01/21 05:42:58;;;;;;;;;;;;;;;3.68;100.00;101171.59;5078768;28;19924;-88
2022/01/21 05:49:15;;;;;;;;;;;;;;;3.43;100.00;101169.63;4995022;28;19926;-87
2022/01/21 05:51:48;;;;;;;;;;;;;;;3.38;100.00;101178.06;4979396;28;19929;-87
2022/01/21 05:54:34;;;;;;;;;;;;;;;3.53;100.00;101174.81;4978448;28;20391;-88
2022/01/21 05:57:19;;;;;;;;;;;;;;;3.64;100.00;101167.84;4978519;28;19925;-88
2022/01/21 05:59:49;;;;;;;;;;;;;;;3.68;100.00;101171.59;4994538;28;19930;-88
2022/01/21 06:02:16;;;;;;;;;;;;;;;4.00;100.00;101179.31;4977946;28;19926;-88
2022/01/21 06:04:49;;;;;;;;;;;;;;;4.26;100.00;101179.22;4978153;28;19926;-88
2022/01/21 06:07:17;;;;;;;;;;;;;;;4.07;100.00;101171.34;4978241;28;19926;-88
2022/01/21 06:09:46;;;;;;;;;;;;;;;4.14;100.00;101179.94;4994183;28;20354;-88
2022/01/21 06:12:13;;;;;;;;;;;;;;;4.22;100.00;101176.34;4978056;28;19980;-88
2022/01/21 06:14:40;;;;;;;;;;;;;;;4.35;100.00;101180.00;4994053;28;19926;-88
2022/01/21 06:17:11;;;;;;;;;;;;;;;3.87;100.00;101172.03;4993761;28;20389;-88
2022/01/21 06:19:38;;;;;;;;;;;;;;;4.17;100.00;101165.44;4994150;28;19926;-89
2022/01/21 06:22:05;;;;;;;;;;;;;;;4.30;100.00;101172.69;4983858;28;19925;-88
2022/01/21 06:24:33;;;;;;;;;;;;;;;4.08;100.00;101161.88;5051962;28;19935;-88
2022/01/21 06:27:03;;;;;;;;;;;;;;;4.34;100.00;101168.16;5094899;28;19932;-88
2022/01/21 06:29:30;;;;;;;;;;;;;;;4.09;100.00;101163.50;5094304;28;19967;-88
2022/01/21 06:31:57;;;;;;;;;;;;;;;4.16;100.00;101163.81;5094615;28;19924;-87
2022/01/21 06:34:24;;;;;;;;;;;;;;;4.25;100.00;101166.53;5077298;28;19924;-88
2022/01/21 06:36:51;;;;;;;;;;;;;;;4.31;100.00;101166.03;5094126;28;19924;-88
2022/01/21 06:39:18;;;;;;;;;;;;;;;4.30;100.00;101167.16;5094261;28;19928;-88
2022/01/21 06:41:47;;;;;;;;;;;;;;;4.39;100.00;101165.19;5060809;28;19924;-88
2022/01/21 06:44:14;;;;;;;;;;;;;;;4.34;100.00;101164.56;5093989;28;20043;-88
2022/01/21 06:46:42;;;;;;;;;;;;;;;4.26;100.00;101165.38;5077691;28;19932;-88
2022/01/21 06:49:09;;;;;;;;;;;;;;;4.12;100.00;101154.53;5060390;28;19928;-87
2022/01/21 06:51:36;;;;;;;;;;;;;;;4.27;100.00;101164.28;5060111;28;20023;-82
2022/01/21 06:54:03;;;;;;;;;;;;;;;4.39;100.00;101162.41;5093271;28;20027;-84
2022/01/21 06:56:30;;;;;;;;;;;;;;;4.34;100.00;101161.78;5076871;28;19931;-84
2022/01/21 06:58:58;;;;;;;;;;;;;;;4.37;100.00;101167.47;5052620;28;20034;-83
2022/01/21 07:01:26;;;;;;;;;;;;;;;4.48;100.00;101159.63;5072890;28;19971;-82
2022/01/21 07:03:53;;;;;;;;;;;;;;;4.14;100.00;101152.25;5089894;28;19936;-83
2022/01/21 07:06:21;;;;;;;;;;;;;;;4.36;100.00;101156.75;5057444;28;20418;-79
2022/01/21 07:08:49;;;;;;;;;;;;;;;4.36;100.00;101160.31;5074829;28;19925;-84
2022/01/21 07:11:16;;;;;;;;;;;;;;;4.31;100.00;101151.38;5074392;28;19924;-84
2022/01/21 07:13:43;;;;;;;;;;;;;;;4.35;100.00;101152.31;5074888;28;19925;-83
2022/01/21 07:16:10;;;;;;;;;;;;;;;4.18;100.00;101157.97;5073990;28;20272;-82
2022/01/21 07:18:38;;;;;;;;;;;;;;;4.28;100.00;101161.16;5074916;28;20302;-82
2022/01/21 07:21:05;;;;;;;;;;;;;;;4.14;100.00;101145.91;5107433;28;20294;-83
2022/01/21 07:23:32;;;;;;;;;;;;;;;4.30;100.00;101142.25;5075130;28;19924;-83
2022/01/21 07:25:59;;;;;;;;;;;;;;;4.39;100.00;101148.56;5073808;28;19928;-83
2022/01/21 07:28:26;;;;;;;;;;;;;;;4.38;100.00;101157.19;5073099;28;20375;-82
2022/01/21 07:30:53;;;;;;;;;;;;;;;4.47;100.00;101144.97;5074804;28;20379;-82
2022/01/21 07:33:20;;;;;;;;;;;;;;;4.60;100.00;101148.66;5074515;28;19931;-82
2022/01/21 07:35:47;;;;;;;;;;;;;;;4.62;100.00;101146.38;5106992;28;19924;-82
2022/01/21 07:38:15;;;;;;;;;;;;;;;4.69;100.00;101152.19;5073508;28;19955;-82
2022/01/21 07:40:42;;;;;;;;;;;;;;;4.64;100.00;101149.59;5049743;28;19925;-82
2022/01/21 07:43:09;;;;;;;;;;;;;;;4.54;100.00;101150.81;5047053;28;19951;-82
2022/01/21 07:45:36;;;;;;;;;;;;;;;4.50;100.00;101152.59;5073140;28;19986;-87
2022/01/21 07:48:04;;;;;;;;;;;;;;;4.51;100.00;101137.63;5072496;28;19924;-86
2022/01/21 07:50:33;;;;;;;;;;;;;;;4.31;100.00;101146.66;5105774;28;19929;-86
2022/01/21 07:53:00;;;;;;;;;;;;;;;4.33;100.00;101149.91;5072591;28;20093;-85
2022/01/21 07:55:28;;;;;;;;;;;;;;;4.00;100.00;101146.13;5073041;28;19932;-86
2022/01/21 07:57:55;;;;;;;;;;;;;;;4.44;100.00;101148.38;5055678;28;19931;-85
2022/01/21 08:00:22;;;;;;;;;;;;;;;4.24;100.00;101146.34;5072591;28;19925;-85
2022/01/21 08:02:49;;;;;;;;;;;;;;;4.24;100.00;101148.34;5072699;28;19931;-85
2022/01/21 08:05:19;;;;;;;;;;;;;;;4.32;100.00;101148.28;5073943;28;19924;-85
2022/01/21 08:07:46;;;;;;;;;;;;;;;4.43;100.00;101132.13;5073909;28;19929;-86
2022/01/21 08:10:13;;;;;;;;;;;;;;;4.26;100.00;101149.59;5090561;28;19935;-85
2022/01/21 08:12:41;;;;;;;;;;;;;;;4.26;100.00;101146.03;5059964;28;19956;-85
2022/01/21 08:15:08;;;;;;;;;;;;;;;4.08;100.00;101153.59;5076651;28;19932;-86
2022/01/21 08:17:36;;;;;;;;;;;;;;;4.39;100.00;101148.56;5075918;28;19924;-85
2022/01/21 08:20:03;;;;;;;;;;;;;;;4.32;100.00;101148.28;5076651;28;19931;-85
2022/01/21 08:22:30;;;;;;;;;;;;;;;4.08;100.00;101147.22;5076388;28;19929;-85
2022/01/21 08:24:58;;;;;;;;;;;;;;;4.36;100.00;101160.31;5077127;28;19946;-85
2022/01/21 08:27:27;;;;;;;;;;;;;;;4.38;100.00;101154.44;5076482;28;19924;-85
2022/01/21 08:29:54;;;;;;;;;;;;;;;4.34;100.00;101151.53;5076045;28;19925;-85
2022/01/21 08:32:21;;;;;;;;;;;;;;;4.51;100.00;101159.78;5093495;28;20472;-86
2022/01/21 08:34:49;;;;;;;;;;;;;;;4.53;100.00;101160.22;5056147;28;19999;-84
2022/01/21 08:37:17;;;;;;;;;;;;;;;4.52;100.00;101153.09;5039912;28;19924;-88
2022/01/21 08:39:44;;;;;;;;;;;;;;;4.60;100.00;101149.47;5089342;28;19952;-88
2022/01/21 08:42:11;;;;;;;;;;;;;;;4.53;100.00;101149.16;5082501;28;19925;-81
2022/01/21 08:44:38;;;;;;;;;;;;;;;4.58;100.00;101140.66;5077020;28;19932;-90
2022/01/21 08:47:05;;;;;;;;;;;;;;;4.73;100.00;101142.88;5087270;28;19924;-89
2022/01/21 08:49:38;;;;;;;;;;;;;;;4.56;100.00;101150.47;5073514;28;19925;-88
2022/01/21 08:52:06;;;;;;;;;;;;;;;4.80;100.00;101154.22;5126540;27;19924;-89
2022/01/21 08:54:33;;;;;;;;;;;;;;;4.72;100.00;101144.03;5096085;28;19924;-88
2022/01/21 08:57:00;;;;;;;;;;;;;;;4.71;100.00;101150.69;5068700;28;19982;-89
2022/01/21 08:59:27;;;;;;;;;;;;;;;4.89;100.00;101143.09;5075599;28;19925;-88
2022/01/21 09:01:55;;;;;;;;;;;;;;;4.65;100.00;101146.50;5078645;28;19931;-89
2022/01/21 09:04:22;;;;;;;;;;;;;;;4.85;100.00;101151.25;5047932;28;19924;-89
2022/01/21 09:06:50;;;;;;;;;;;;;;;5.09;100.00;101145.88;5071963;28;19974;-85
2022/01/21 09:09:17;;;;;;;;;;;;;;;4.91;100.00;101133.28;5054693;28;19931;-86
2022/01/21 09:11:45;;;;;;;;;;;;;;;5.15;100.00;101136.22;5054216;28;19936;-82
2022/01/21 09:14:12;;;;;;;;;;;;;;;5.31;100.00;101148.34;5071902;28;19935;-83
2022/01/21 09:16:42;;;;;;;;;;;;;;;5.21;100.00;101143.19;5085638;28;19960;-85
2022/01/21 09:19:09;;;;;;;;;;;;;;;5.47;100.00;101131.88;5066573;28;19935;-83
2022/01/21 09:21:42;;;;;;;;;;;;;;;5.46;100.00;101139.41;5071157;28;19973;-83
2022/01/21 09:24:11;;;;;;;;;;;;;;;5.39;100.00;101133.56;5073104;28;19924;-78
2022/01/21 09:26:38;;;;;;;;;;;;;;;5.68;100.00;101137.41;5062001;28;20021;-79
2022/01/21 09:29:06;;;;;;;;;;;;;;;5.62;100.00;101138.75;5065232;28;19984;-82
2022/01/21 09:31:34;;;;;;;;;;;;;;;5.51;100.00;101141.16;5072159;28;19924;-79
2022/01/21 09:34:22;;;;;;;;;;;;;;;5.68;100.00;101137.41;5047245;28;19931;-79
2022/01/21 09:36:49;;;;;;;;;;;;;;;5.69;100.00;101130.69;5073438;28;19944;-79
2022/01/21 09:39:19;;;;;;;;;;;;;;;5.58;100.00;101113.66;5074632;28;20368;-79
2022/01/21 09:41:48;;;;;;;;;;;;;;;5.47;100.00;101121.59;5071810;28;20379;-83
2022/01/21 09:44:17;;;;;;;;;;;;;;;5.76;100.00;101120.66;5038919;28;19932;-81
2022/01/21 09:46:47;;;;;;;;;;;;;;;5.86;100.00;101127.78;5054900;28;19978;-81
2022/01/21 09:49:26;;;;;;;;;;;;;;;5.88;100.00;101122.69;5023724;28;20351;-82
2022/01/21 09:52:01;;;;;;;;;;;;;;;5.70;100.00;101126.75;5070941;28;19986;-82
2022/01/21 09:54:34;;;;;;;;;;;;;;;5.80;100.00;101126.34;5052390;28;20012;-81
2022/01/21 09:57:02;;;;;;;;;;;;;;;5.78;100.00;101123.09;5085507;28;20375;-81
2022/01/21 09:59:32;;;;;;;;;;;;;;;5.84;100.00;101127.28;5053157;28;20291;-84
2022/01/21 10:02:04;;;;;;;;;;;;;;;5.73;100.00;101137.16;5051855;28;20308;-83
2022/01/21 10:04:33;;;;;;;;;;;;;;;5.84;100.00;101105.09;5071209;28;19924;-84
2022/01/21 10:07:00;;;;;;;;;;;;;;;5.70;100.00;101118.44;5072909;28;20538;-82
2022/01/21 10:09:28;;;;;;;;;;;;;;;5.84;100.00;101113.44;5072720;28;19924;-83
2022/01/21 10:12:20;;;;;;;;;;;;;;;5.98;100.00;101114.75;5071122;28;20029;-79
2022/01/21 10:14:47;;;;;;;;;;;;;;;6.00;100.00;101117.19;5065448;28;19960;-83
2022/01/21 10:17:15;;;;;;;;;;;;;;;6.00;100.00;101112.41;5072378;28;19928;-77
2022/01/21 10:19:48;;;;;;;;;;;;;;;6.25;100.00;101116.03;5070919;28;19924;-81
2022/01/21 10:22:19;;;;;;;;;;;;;;;6.05;100.00;101112.22;5071977;28;19928;-80
2022/01/21 10:24:58;;;;;;;;;;;;;;;6.31;100.00;101114.66;5075534;28;19960;-83
2022/01/21 10:27:26;;;;;;;;;;;;;;;6.24;100.00;101111.66;5072331;28;20013;-80
2022/01/21 10:29:54;;;;;;;;;;;;;;;5.99;100.00;101112.75;5070095;28;19924;-84
2022/01/21 10:32:31;;;;;;;;;;;;;;;5.96;100.00;101102.34;5054281;28;19924;-86
2022/01/21 10:35:00;;;;;;;;;;;;;;;6.14;100.00;101110.13;5054534;28;20140;-86
2022/01/21 10:37:34;;;;;;;;;;;;;;;6.21;100.00;101109.56;5071883;28;19925;-84
2022/01/21 10:40:05;;;;;;;;;;;;;;;6.18;100.00;101105.50;5054380;28;19974;-84
2022/01/21 10:42:32;;;;;;;;;;;;;;;6.12;100.00;101114.44;5054587;28;20015;-81
2022/01/21 10:45:00;;;;;;;;;;;;;;;6.24;100.00;101103.34;5072024;28;19933;-87
2022/01/21 10:47:30;;;;;;;;;;;;;;;5.99;100.00;101099.72;5020601;28;20330;-87
2022/01/21 10:50:00;;;;;;;;;;;;;;;6.07;100.00;101100.75;5070197;28;20303;-84
2022/01/21 10:53:02;;;;;;;;;;;;;;;6.14;100.00;101101.81;5070394;28;19930;-85
2022/01/21 10:55:32;;;;;;;;;;;;;;;6.21;100.00;101088.16;5032774;28;20409;-84
2022/01/21 10:58:07;;;;;;;;;;;;;;;6.09;100.00;101084.59;5032281;28;19963;-86
2022/01/21 11:00:36;;;;;;;;;;;;;;;6.06;100.00;101091.63;5034414;28;20418;-89
2022/01/21 11:03:12;;;;;;;;;;;;;;;6.01;100.00;101093.81;5033676;28;20347;-82
2022/01/21 11:05:43;;;;;;;;;;;;;;;5.98;100.00;101083.41;5016576;28;20418;-83
2022/01/21 11:08:11;;;;;;;;;;;;;;;6.12;100.00;101095.00;5016486;28;20411;-78
2022/01/21 11:10:39;;;;;;;;;;;;;;;6.19;100.00;101095.22;5045324;28;20111;-82
2022/01/21 11:13:13;;;;;;;;;;;;;;;6.39;100.00;101094.31;5032885;28;19925;-87
2022/01/21 11:15:42;;;;;;;;;;;;;;;6.47;100.00;101093.38;5049226;28;20424;-88
2022/01/21 11:18:13;;;;;;;;;;;;;;;6.42;100.00;101104.72;5016701;28;19925;-88
2022/01/21 11:20:42;;;;;;;;;;;;;;;6.60;100.00;101100.56;5014925;28;19925;-87
2022/01/21 11:23:10;;;;;;;;;;;;;;;6.18;100.00;101101.94;5009739;28;19925;-88
2022/01/21 11:25:43;;;;;;;;;;;;;;;6.51;100.00;101102.66;5009568;28;20065;-86
2022/01/21 11:28:16;;;;;;;;;;;;;;;6.35;100.00;101113.63;5026827;28;20372;-84
2022/01/21 11:30:44;;;;;;;;;;;;;;;6.60;100.00;101101.38;5061974;28;19928;-80
2022/01/21 11:33:11;;;;;;;;;;;;;;;6.58;100.00;101094.53;5052527;28;20300;-82
2022/01/21 11:35:38;;;;;;;;;;;;;;;6.51;100.00;101097.88;5068757;28;20461;-81
2022/01/21 11:38:06;;;;;;;;;;;;;;;6.59;100.00;101085.03;5069800;28;19932;-81
2022/01/21 11:40:34;;;;;;;;;;;;;;;6.69;100.00;101092.91;5069028;28;19931;-81
2022/01/21 11:43:02;;;;;;;;;;;;;;;6.73;100.00;101088.25;5070631;28;19925;-81
2022/01/21 11:46:15;;;;;;;;;;;;;;;6.56;100.00;101085.72;5069757;28;19928;-82
2022/01/21 11:48:50;;;;;;;;;;;;;;;6.80;100.00;101083.72;5049930;28;19990;-87
2022/01/21 11:51:26;;;;;;;;;;;;;;;6.75;100.00;101080.41;5067788;28;19925;-86
2022/01/21 11:53:57;;;;;;;;;;;;;;;6.93;100.00;101085.34;5069150;28;20391;-85
2022/01/21 11:56:34;;;;;;;;;;;;;;;6.94;100.00;101081.41;5067993;28;20019;-89
2022/01/21 11:59:25;;;;;;;;;;;;;;;6.66;100.00;101077.75;5068147;28;19928;-86
2022/01/21 12:01:53;;;;;;;;;;;;;;;6.52;100.00;101070.91;5077443;28;19932;-87
2022/01/21 12:04:29;;;;;;;;;;;;;;;6.75;100.00;101074.84;5041642;28;19928;-85
2022/01/21 12:06:58;;;;;;;;;;;;;;;6.63;100.00;101060.97;5069450;28;19935;-83
2022/01/21 12:09:44;;;;;;;;;;;;;;;6.99;100.00;101058.09;5066089;28;20001;-83
2022/01/21 12:12:13;;;;;;;;;;;;;;;6.68;100.00;101057.97;5073268;28;19929;-84
2022/01/21 12:14:43;;;;;;;;;;;;;;;6.82;100.00;101058.38;5070427;28;20149;-87
2022/01/21 12:17:31;;;;;;;;;;;;;;;7.09;100.00;101040.91;5072048;28;19954;-87
2022/01/21 12:20:06;;;;;;;;;;;;;;;7.47;100.00;101041.22;5036514;28;19928;-88
2022/01/21 12:22:33;;;;;;;;;;;;;;;7.38;100.00;101037.78;5071305;28;19974;-86
2022/01/21 12:25:10;;;;;;;;;;;;;;;7.11;100.00;101025.53;5072658;28;20074;-88
2022/01/21 12:27:38;;;;;;;;;;;;;;;7.24;100.00;101040.16;5073536;28;19931;-87
2022/01/21 12:30:21;;;;;;;;;;;;;;;7.35;100.00;101032.94;5054969;28;19925;-86
2022/01/21 12:33:10;;;;;;;;;;;;;;;7.26;100.00;101015.59;5069419;28;19925;-87
2022/01/21 12:35:41;;;;;;;;;;;;;;;7.36;100.00;101013.13;5082605;28;19960;-87
2022/01/21 12:41:00;;;;;;;;;;;;;;;7.00;100.00;101027.19;5092493;28;20044;-88
2022/01/21 12:43:38;;;;;;;;;;;;;;;7.12;100.00;101016.00;5079586;28;20352;-89
2022/01/21 12:46:07;;;;;;;;;;;;;;;6.84;100.00;101028.28;5089775;28;19931;-89
2022/01/21 12:48:36;;;;;;;;;;;;;;;7.07;100.00;101032.13;5072228;28;19931;-88
2022/01/21 12:56:54;;;;;;;;;;;;;;;6.66;100.00;101021.38;5055430;28;20008;-88
2022/01/21 12:59:25;;;;;;;;;;;;;;;6.75;100.00;101024.81;5056958;28;19925;-88
2022/01/21 13:01:52;;;;;;;;;;;;;;;6.70;100.00;101023.09;5072219;28;20372;-88
2022/01/21 13:04:34;;;;;;;;;;;;;;;6.78;100.00;101018.56;5056942;28;19964;-88
2022/01/21 13:07:05;;;;;;;;;;;;;;;6.78;100.00;101018.56;5055938;28;19925;-88
2022/01/21 13:09:44;;;;;;;;;;;;;;;6.66;100.00;101022.19;5055743;28;19967;-89
2022/01/21 13:12:12;;;;;;;;;;;;;;;6.53;100.00;101019.75;5055859;28;19924;-89
2022/01/21 13:14:45;;;;;;;;;;;;;;;6.32;100.00;100994.09;5055535;28;19925;-88
2022/01/21 13:17:14;;;;;;;;;;;;;;;6.34;100.00;101009.28;5055701;28;19924;-88
2022/01/21 13:19:51;;;;;;;;;;;;;;;6.42;100.00;100993.66;5072187;28;19931;-88
2022/01/21 13:22:22;;;;;;;;;;;;;;;6.54;100.00;100988.06;5072111;28;19925;-90
2022/01/21 13:24:57;;;;;;;;;;;;;;;6.77;100.00;100987.19;5055344;28;19931;-88
2022/01/21 13:27:25;;;;;;;;;;;;;;;6.62;100.00;100981.56;5055275;28;20016;-89
2022/01/21 13:30:15;;;;;;;;;;;;;;;6.77;100.00;100976.06;5089309;28;19924;-89
2022/01/21 13:32:42;;;;;;;;;;;;;;;6.46;100.00;100964.81;5055533;28;20032;-89
2022/01/21 13:35:09;;;;;;;;;;;;;;;6.47;100.00;100982.28;5055084;28;19925;-89
2022/01/21 13:37:39;;;;;;;;;;;;;;;6.69;100.00;100971.47;5055046;28;19936;-88
2022/01/21 13:40:08;;;;;;;;;;;;;;;6.73;100.00;100977.94;5071997;28;19925;-90
2022/01/21 13:42:36;;;;;;;;;;;;;;;6.62;100.00;100987.13;5038547;28;19991;-89
2022/01/21 13:45:08;;;;;;;;;;;;;;;6.66;100.00;100991.63;5070563;28;19932;-91
2022/01/21 13:47:39;;;;;;;;;;;;;;;6.57;100.00;100996.50;5079438;28;19925;-90
2022/01/21 13:50:17;;;;;;;;;;;;;;;6.63;100.00;101006.22;5057233;28;19925;-90
2022/01/21 13:52:47;;;;;;;;;;;;;;;6.65;100.00;100991.97;5083761;28;20349;-89